Time;durP1;ratioP1;P1;durP2;ratioP2;P2;SDS_P1;SDS_P2;PMS_P1;PMS_P2;Temp;Humidity;BMP_temperature;BMP_pressure;BME280_temperature;BME280_humidity;BME280_pressure;Samples;Min_cycle;Max_cycle;Signal;HPM_P1;HPM_P2
2023/12/09 17:58:38;;;;;;;3.30;2.00;;;6.80;99.90;;;;;;5121647;27;20364;-71
2023/12/09 18:01:06;;;;;;;2.80;2.20;;;6.80;99.90;;;;;;5120928;27;20501;-69
2023/12/09 18:03:32;;;;;;;3.47;2.17;;;6.80;99.90;;;;;;5111381;27;20424;-71
2023/12/09 18:05:59;;;;;;;2.97;2.10;;;6.90;99.90;;;;;;5111026;27;20433;-70
2023/12/09 18:08:26;;;;;;;3.80;2.20;;;6.90;99.90;;;;;;5112896;27;20435;-73
2023/12/09 18:10:53;;;;;;;2.92;2.42;;;6.90;99.90;;;;;;5115126;27;20798;-73
2023/12/09 18:13:21;;;;;;;5.00;2.60;;;6.90;99.90;;;;;;5113472;27;20459;-71
2023/12/09 18:15:50;;;;;;;3.05;2.40;;;6.90;99.90;;;;;;5112731;27;20428;-71
2023/12/09 18:18:16;;;;;;;4.25;2.80;;;6.90;99.90;;;;;;5121549;27;20420;-72
2023/12/09 18:20:43;;;;;;;3.20;2.90;;;6.90;99.90;;;;;;5115262;27;20430;-71
2023/12/09 18:23:10;;;;;;;3.78;2.80;;;6.90;99.90;;;;;;5110970;27;20432;-72
2023/12/09 18:25:37;;;;;;;3.92;3.20;;;6.90;99.90;;;;;;5114966;27;20431;-72
2023/12/09 18:28:04;;;;;;;3.80;2.90;;;6.90;99.90;;;;;;5110496;27;20516;-72
2023/12/09 18:30:31;;;;;;;3.60;2.70;;;7.00;99.90;;;;;;5111751;27;20432;-72
2023/12/09 18:32:59;;;;;;;5.80;3.30;;;7.00;99.90;;;;;;5112877;27;20443;-71
2023/12/09 18:35:26;;;;;;;3.60;3.30;;;7.00;99.90;;;;;;5114889;27;20789;-74
2023/12/09 18:37:53;;;;;;;4.20;3.80;;;7.00;99.90;;;;;;5116755;27;20450;-68
2023/12/09 18:40:22;;;;;;;4.43;3.70;;;7.00;99.90;;;;;;5113218;27;20904;-72
2023/12/09 18:42:49;;;;;;;5.90;4.00;;;7.10;99.90;;;;;;5110342;27;20437;-71
2023/12/09 18:45:16;;;;;;;4.75;3.72;;;7.10;99.90;;;;;;5117760;27;20424;-70
2023/12/09 18:47:43;;;;;;;6.00;3.78;;;7.10;99.90;;;;;;5123986;27;20409;-70
2023/12/09 18:50:13;;;;;;;5.40;3.67;;;7.10;99.90;;;;;;5117999;27;20423;-70
2023/12/09 18:52:40;;;;;;;4.10;3.30;;;7.20;99.90;;;;;;5122780;27;20419;-69
2023/12/09 18:55:08;;;;;;;3.95;3.55;;;7.20;99.90;;;;;;5117168;27;20413;-62
2023/12/09 18:57:35;;;;;;;3.83;3.42;;;7.30;99.90;;;;;;5116149;27;20781;-62
2023/12/09 19:00:03;;;;;;;3.75;2.90;;;7.30;99.90;;;;;;5107139;27;20915;-62
2023/12/09 19:02:31;;;;;;;3.63;2.90;;;7.40;99.90;;;;;;5119096;27;20415;-68
2023/12/09 19:04:58;;;;;;;3.20;2.30;;;7.50;99.90;;;;;;5118104;28;20884;-72
2023/12/09 19:07:27;;;;;;;3.17;2.40;;;7.50;99.90;;;;;;5123435;27;20498;-72
2023/12/09 19:09:54;;;;;;;2.10;1.90;;;7.50;99.90;;;;;;5102131;27;20878;-72
2023/12/09 19:12:20;;;;;;;2.10;1.40;;;7.60;99.90;;;;;;5097600;28;20426;-72
2023/12/09 19:14:47;;;;;;;2.20;1.40;;;7.60;99.90;;;;;;5098442;27;20430;-73
2023/12/09 19:17:14;;;;;;;1.50;1.30;;;7.60;99.90;;;;;;5098762;27;20856;-75
2023/12/09 19:19:41;;;;;;;2.67;1.40;;;7.70;99.90;;;;;;5108267;28;20422;-72
2023/12/09 19:22:08;;;;;;;2.08;1.50;;;7.70;99.90;;;;;;5102453;27;20465;-73
2023/12/09 19:24:37;;;;;;;2.28;1.60;;;7.70;99.90;;;;;;5104938;28;20695;-72
2023/12/09 19:27:04;;;;;;;3.80;1.50;;;7.70;99.90;;;;;;5108116;28;20427;-72
2023/12/09 19:29:31;;;;;;;2.80;1.60;;;7.80;99.90;;;;;;5100488;27;20406;-72
2023/12/09 19:31:58;;;;;;;1.48;1.23;;;7.80;99.90;;;;;;5108139;27;20412;-72
2023/12/09 19:34:25;;;;;;;2.40;1.40;;;7.80;99.90;;;;;;5100464;27;20987;-72
2023/12/09 19:36:52;;;;;;;2.20;1.40;;;7.80;99.90;;;;;;5096256;27;20936;-73
2023/12/09 19:39:19;;;;;;;1.60;1.08;;;7.80;99.90;;;;;;5104647;28;20434;-72
2023/12/09 19:41:47;;;;;;;2.45;1.60;;;7.90;99.90;;;;;;5102185;28;20501;-72
2023/12/09 19:44:14;;;;;;;1.70;1.15;;;7.90;99.90;;;;;;5096569;28;20426;-74
2023/12/09 19:46:41;;;;;;;2.30;1.50;;;7.90;99.90;;;;;;5089648;27;20494;-71
2023/12/09 19:49:08;;;;;;;1.60;1.35;;;7.90;99.90;;;;;;5098541;27;20503;-72
2023/12/09 19:51:35;;;;;;;2.38;1.10;;;8.00;99.90;;;;;;5106997;27;20413;-72
2023/12/09 19:54:02;;;;;;;2.23;1.30;;;8.00;99.90;;;;;;5095675;27;20992;-72
2023/12/09 19:56:29;;;;;;;2.15;1.40;;;8.10;99.90;;;;;;5096763;28;20668;-73
2023/12/09 19:58:57;;;;;;;2.33;1.50;;;8.10;99.90;;;;;;5099106;28;20867;-73
2023/12/09 20:01:24;;;;;;;2.72;1.40;;;8.20;99.90;;;;;;5094071;27;20505;-73
2023/12/09 20:03:51;;;;;;;2.53;1.80;;;8.20;99.90;;;;;;5105682;27;20418;-72
2023/12/09 20:06:18;;;;;;;1.73;1.52;;;8.30;99.90;;;;;;5099059;28;20761;-72
2023/12/09 20:08:45;;;;;;;3.30;2.00;;;8.40;99.90;;;;;;5100561;27;20930;-72
2023/12/09 20:11:12;;;;;;;3.00;2.10;;;8.50;99.90;;;;;;5099680;28;20421;-73
2023/12/09 20:13:39;;;;;;;3.20;2.08;;;8.50;99.90;;;;;;5097261;27;20574;-73
2023/12/09 20:16:09;;;;;;;2.63;2.00;;;8.60;99.90;;;;;;5095746;27;20446;-73
2023/12/09 20:18:36;;;;;;;2.83;1.90;;;8.70;99.90;;;;;;5093803;28;20859;-73
2023/12/09 20:21:03;;;;;;;4.72;2.50;;;8.80;99.90;;;;;;5089738;28;20412;-73
2023/12/09 20:23:30;;;;;;;3.30;2.50;;;9.00;99.90;;;;;;5096044;27;20472;-72
2023/12/09 20:25:56;;;;;;;6.10;2.70;;;9.20;99.90;;;;;;5102083;28;20440;-73
2023/12/09 20:28:23;;;;;;;3.90;2.20;;;9.40;99.90;;;;;;5098109;28;20410;-73
2023/12/09 20:30:52;;;;;;;4.30;2.30;;;9.50;99.90;;;;;;5095850;27;20926;-73
2023/12/09 20:33:20;;;;;;;4.90;2.78;;;9.70;99.90;;;;;;5092822;28;20517;-72
2023/12/09 20:35:47;;;;;;;4.80;3.08;;;9.80;99.90;;;;;;5094131;27;20432;-72
2023/12/09 20:38:14;;;;;;;5.55;2.92;;;9.80;99.90;;;;;;5097924;27;20420;-71
2023/12/09 20:40:41;;;;;;;7.82;4.03;;;9.90;99.90;;;;;;5103293;27;20496;-71
2023/12/09 20:43:08;;;;;;;9.50;3.50;;;9.80;99.90;;;;;;5097297;27;20695;-71
2023/12/09 20:45:36;;;;;;;6.82;3.20;;;9.80;99.90;;;;;;5093747;27;20433;-71
2023/12/09 20:48:03;;;;;;;7.50;3.35;;;9.80;99.90;;;;;;5102615;28;20420;-72
2023/12/09 20:50:31;;;;;;;9.45;4.05;;;9.70;99.90;;;;;;5096123;28;20406;-72
2023/12/09 20:52:58;;;;;;;6.88;3.40;;;9.60;99.90;;;;;;5090268;28;20436;-73
2023/12/09 20:55:25;;;;;;;9.13;3.30;;;9.50;99.90;;;;;;5095913;28;20949;-72
2023/12/09 20:57:52;;;;;;;8.63;3.22;;;9.40;99.90;;;;;;5093536;28;20425;-72
2023/12/09 21:00:19;;;;;;;8.98;3.53;;;9.30;99.90;;;;;;5097429;28;20831;-71
2023/12/09 21:02:46;;;;;;;9.32;3.50;;;9.30;99.90;;;;;;5097567;28;20892;-71
2023/12/09 21:05:13;;;;;;;8.90;3.53;;;9.20;99.90;;;;;;5092388;28;20412;-73
2023/12/09 21:07:41;;;;;;;9.40;3.65;;;9.20;99.90;;;;;;5096243;28;20416;-73
2023/12/09 21:10:09;;;;;;;9.30;3.93;;;9.20;99.90;;;;;;5090876;28;20413;-71
2023/12/09 21:12:36;;;;;;;8.30;3.65;;;9.20;99.90;;;;;;5093106;27;20441;-72
2023/12/09 21:15:03;;;;;;;10.87;3.80;;;9.20;99.90;;;;;;5099247;27;20420;-72
2023/12/09 21:17:29;;;;;;;9.05;3.58;;;9.10;99.90;;;;;;5090499;27;20420;-71
2023/12/09 21:19:56;;;;;;;10.02;3.90;;;9.10;99.90;;;;;;5100663;28;20413;-71
2023/12/09 21:22:23;;;;;;;12.80;4.15;;;9.10;99.90;;;;;;5096702;28;20429;-72
2023/12/09 21:24:52;;;;;;;10.55;3.20;;;9.10;99.90;;;;;;5101288;28;21146;-72
2023/12/09 21:27:19;;;;;;;15.00;4.38;;;9.10;99.90;;;;;;5096492;28;20449;-71
2023/12/09 21:29:46;;;;;;;9.90;3.20;;;9.20;99.90;;;;;;5098656;28;20404;-73
2023/12/09 21:32:12;;;;;;;11.93;3.55;;;9.20;99.90;;;;;;5091188;28;20536;-74
2023/12/09 21:34:39;;;;;;;15.02;3.90;;;9.30;99.90;;;;;;5106682;28;20421;-73
2023/12/09 21:37:06;;;;;;;12.63;4.03;;;9.30;99.90;;;;;;5103437;28;20928;-73
2023/12/09 21:39:33;;;;;;;12.20;3.30;;;9.30;99.90;;;;;;5096611;28;20425;-72
2023/12/09 21:42:01;;;;;;;11.30;3.58;;;9.40;99.90;;;;;;5096846;28;20522;-73
2023/12/09 21:44:28;;;;;;;8.57;3.20;;;9.50;99.90;;;;;;5094412;28;20855;-71
2023/12/09 21:46:54;;;;;;;13.45;3.72;;;9.50;99.90;;;;;;5087987;28;20433;-73
2023/12/09 21:49:21;;;;;;;11.65;4.38;;;9.60;99.90;;;;;;5103544;28;20786;-73
2023/12/09 21:51:48;;;;;;;10.50;3.55;;;9.50;99.90;;;;;;5088174;28;20410;-72
2023/12/09 21:54:16;;;;;;;10.82;3.92;;;9.50;99.90;;;;;;5096758;28;20842;-72
2023/12/09 21:56:44;;;;;;;13.23;4.10;;;9.50;99.90;;;;;;5096329;28;20475;-71
2023/12/09 21:59:12;;;;;;;11.77;4.27;;;9.50;99.90;;;;;;5100148;28;20910;-71
2023/12/09 22:01:38;;;;;;;13.15;4.28;;;9.50;99.90;;;;;;5091376;28;20418;-71
2023/12/09 22:04:06;;;;;;;12.98;3.92;;;9.50;99.90;;;;;;5094002;28;20412;-71
2023/12/09 22:06:32;;;;;;;10.65;4.15;;;9.60;99.90;;;;;;5095425;28;20633;-71
2023/12/09 22:08:59;;;;;;;14.93;3.97;;;9.60;99.90;;;;;;5103127;28;20411;-71
2023/12/09 22:11:26;;;;;;;13.33;4.20;;;9.60;99.90;;;;;;5096543;28;20409;-71
2023/12/09 22:13:53;;;;;;;13.45;3.58;;;9.60;99.90;;;;;;5091963;28;20418;-71
2023/12/09 22:16:21;;;;;;;14.07;4.00;;;9.60;99.90;;;;;;5096857;28;20456;-71
2023/12/09 22:18:48;;;;;;;15.50;4.20;;;9.60;99.90;;;;;;5099952;28;20424;-71
2023/12/09 22:21:15;;;;;;;15.48;4.40;;;9.60;99.90;;;;;;5107902;28;20772;-71
2023/12/09 22:23:42;;;;;;;10.13;3.38;;;9.70;99.90;;;;;;5102154;28;20413;-72
2023/12/09 22:26:09;;;;;;;13.60;4.80;;;9.70;99.90;;;;;;5100428;28;20412;-72
2023/12/09 22:28:38;;;;;;;12.73;4.60;;;9.70;99.90;;;;;;5096867;28;20798;-72
2023/12/09 22:31:07;;;;;;;12.55;4.05;;;9.70;99.90;;;;;;5107260;28;20436;-71
2023/12/09 22:33:37;;;;;;;15.40;4.50;;;9.70;99.90;;;;;;5099655;28;20467;-71
2023/12/09 22:36:04;;;;;;;12.05;4.18;;;9.80;99.90;;;;;;5100205;28;20922;-71
2023/12/09 22:38:31;;;;;;;16.05;4.25;;;9.80;99.90;;;;;;5089300;28;20977;-71
2023/12/09 22:40:57;;;;;;;16.98;4.30;;;9.80;99.90;;;;;;5103609;28;20759;-71
2023/12/09 22:43:24;;;;;;;16.73;4.30;;;9.80;99.90;;;;;;5090870;28;20441;-71
2023/12/09 22:45:51;;;;;;;15.63;5.03;;;9.80;99.90;;;;;;5099331;28;20412;-71
2023/12/09 22:48:18;;;;;;;16.08;4.18;;;9.90;99.90;;;;;;5105470;28;20419;-71
2023/12/09 22:50:46;;;;;;;13.98;4.00;;;9.90;99.90;;;;;;5098089;28;20406;-71
2023/12/09 22:53:13;;;;;;;14.90;4.72;;;9.90;99.90;;;;;;5096824;27;20409;-72
2023/12/09 22:55:40;;;;;;;17.23;5.15;;;10.00;99.90;;;;;;5099141;28;20416;-71
2023/12/09 22:58:07;;;;;;;14.70;5.07;;;10.00;99.90;;;;;;5094886;28;20428;-72
2023/12/09 23:00:36;;;;;;;16.73;4.43;;;10.00;99.90;;;;;;5100699;28;20914;-73
2023/12/09 23:03:03;;;;;;;14.60;5.20;;;10.10;99.90;;;;;;5090431;28;20463;-71
2023/12/09 23:05:30;;;;;;;17.52;5.93;;;10.10;99.90;;;;;;5093250;27;20421;-70
2023/12/09 23:07:58;;;;;;;15.80;4.30;;;10.10;99.90;;;;;;5098588;27;20414;-72
2023/12/09 23:10:25;;;;;;;14.80;4.63;;;10.10;99.90;;;;;;5096832;28;20412;-71
2023/12/09 23:12:52;;;;;;;14.57;4.60;;;10.10;99.90;;;;;;5096487;27;20430;-70
2023/12/09 23:15:20;;;;;;;15.45;4.60;;;10.00;99.90;;;;;;5099525;28;20431;-71
2023/12/09 23:17:47;;;;;;;14.43;5.10;;;10.10;99.90;;;;;;5094335;28;20404;-71
2023/12/09 23:20:14;;;;;;;12.93;4.40;;;10.10;99.90;;;;;;5098176;28;20427;-70
2023/12/09 23:22:41;;;;;;;17.33;5.30;;;10.10;99.90;;;;;;5100113;28;20505;-71
2023/12/09 23:25:09;;;;;;;14.40;5.32;;;10.10;99.90;;;;;;5096821;27;20408;-70
2023/12/09 23:27:36;;;;;;;17.15;5.20;;;10.10;99.90;;;;;;5096494;28;20432;-70
2023/12/09 23:30:03;;;;;;;16.27;4.60;;;10.10;99.90;;;;;;5092424;28;20432;-71
2023/12/09 23:32:30;;;;;;;20.88;5.95;;;10.20;99.90;;;;;;5100506;28;20400;-71
2023/12/09 23:34:57;;;;;;;17.05;5.63;;;10.10;99.90;;;;;;5103191;28;20410;-70
2023/12/09 23:37:24;;;;;;;14.93;5.35;;;10.10;99.90;;;;;;5100128;28;20414;-70
2023/12/09 23:39:51;;;;;;;18.02;5.75;;;10.10;99.90;;;;;;5094744;28;20429;-71
2023/12/09 23:42:19;;;;;;;16.48;5.70;;;10.10;99.90;;;;;;5101939;28;20425;-70
2023/12/09 23:44:46;;;;;;;19.08;5.03;;;10.20;99.90;;;;;;5099558;28;20434;-71
2023/12/09 23:47:13;;;;;;;16.52;4.72;;;10.20;99.90;;;;;;5106437;28;20422;-71
2023/12/09 23:49:40;;;;;;;17.67;4.73;;;10.20;99.90;;;;;;5104441;28;20440;-71
2023/12/09 23:52:08;;;;;;;16.98;5.07;;;10.20;99.90;;;;;;5093845;28;20662;-71
2023/12/09 23:54:34;;;;;;;19.83;5.50;;;10.20;99.90;;;;;;5099658;28;20404;-71
2023/12/09 23:57:01;;;;;;;13.23;4.53;;;10.10;99.90;;;;;;5093575;28;20417;-71
2023/12/09 23:59:29;;;;;;;18.30;5.55;;;10.10;99.90;;;;;;5100363;28;20432;-71
